Time;durP1;ratioP1;P1;durP2;ratioP2;P2;SDS_P1;SDS_P2;PMS_P1;PMS_P2;Temp;Humidity;BMP_temperature;BMP_pressure;BME280_temperature;BME280_humidity;BME280_pressure;Samples;Min_cycle;Max_cycle;Signal;HPM_P1;HPM_P2
2021/12/24 00:00:11;;;;;;;41.13;25.08;;;;;;;;;;6186561;28;20092;-65
2021/12/24 00:03:13;;;;;;;47.95;25.13;;;;;;;;;;6188338;28;20062;-65
2021/12/24 00:06:15;;;;;;;44.80;24.42;;;;;;;;;;6187379;28;20119;-65
2021/12/24 00:09:21;;;;;;;40.05;23.33;;;;;;;;;;6219497;28;20126;-65
2021/12/24 00:12:27;;;;;;;39.33;22.70;;;;;;;;;;6220364;28;20099;-65
2021/12/24 00:18:58;;;;;;;43.72;24.35;;;;;;;;;;6200529;28;20102;-64
2021/12/24 00:22:54;;;;;;;39.45;22.30;;;;;;;;;;6200423;28;20046;-65
2021/12/24 00:35:49;;;;;;;38.35;21.48;;;;;;;;;;6182304;28;20046;-65
2021/12/24 00:38:51;;;;;;;35.63;21.23;;;;;;;;;;6194939;28;20053;-64
2021/12/24 00:41:55;;;;;;;39.47;21.13;;;;;;;;;;6183782;28;20053;-64
2021/12/24 00:44:58;;;;;;;36.45;21.05;;;;;;;;;;6198931;28;20046;-64
2021/12/24 00:48:00;;;;;;;40.17;22.20;;;;;;;;;;6177065;28;20116;-64
2021/12/24 00:51:19;;;;;;;33.65;20.90;;;;;;;;;;6183393;28;20042;-64
2021/12/24 00:57:41;;;;;;;34.55;20.27;;;;;;;;;;6208156;28;20076;-64
2021/12/24 01:00:44;;;;;;;34.38;20.55;;;;;;;;;;6191907;28;20519;-65
2021/12/24 01:03:46;;;;;;;35.30;20.63;;;;;;;;;;6183623;28;20193;-64
2021/12/24 01:06:47;;;;;;;32.42;19.52;;;;;;;;;;6180396;28;20531;-65
2021/12/24 01:09:49;;;;;;;33.78;18.98;;;;;;;;;;6180501;28;21170;-65
2021/12/24 01:12:51;;;;;;;38.08;20.85;;;;;;;;;;6184605;28;20136;-65
2021/12/24 01:15:59;;;;;;;34.58;19.83;;;;;;;;;;6180772;28;20809;-64
2021/12/24 01:19:05;;;;;;;33.88;19.95;;;;;;;;;;6186882;28;20054;-65
2021/12/24 01:22:42;;;;;;;37.65;20.52;;;;;;;;;;6192484;28;20056;-65
2021/12/24 01:25:39;;;;;;;32.33;19.27;;;;;;;;;;6190881;28;20053;-66
2021/12/24 01:29:00;;;;;;;32.35;18.48;;;;;;;;;;6200687;28;20710;-66
2021/12/24 01:38:59;;;;;;;31.88;19.25;;;;;;;;;;6183621;28;20042;-65
2021/12/24 01:45:22;;;;;;;34.88;19.45;;;;;;;;;;6224234;28;20053;-65
2021/12/24 01:48:25;;;;;;;31.63;19.33;;;;;;;;;;6215966;28;20370;-65
2021/12/24 01:51:28;;;;;;;37.55;21.48;;;;;;;;;;6205184;28;20164;-64
2021/12/24 01:54:30;;;;;;;32.70;19.63;;;;;;;;;;6210821;28;20506;-65
2021/12/24 01:57:32;;;;;;;36.03;20.90;;;;;;;;;;6210604;28;20061;-65
2021/12/24 02:00:37;;;;;;;35.95;21.45;;;;;;;;;;6177735;28;20521;-65
2021/12/24 02:03:40;;;;;;;36.03;21.23;;;;;;;;;;6186762;28;20781;-65
2021/12/24 02:06:42;;;;;;;33.30;19.98;;;;;;;;;;6186249;28;20188;-65
2021/12/24 02:09:44;;;;;;;34.60;20.83;;;;;;;;;;6194749;28;20132;-64
2021/12/24 02:12:46;;;;;;;38.85;22.52;;;;;;;;;;6191795;28;21688;-65
2021/12/24 02:16:03;;;;;;;36.17;21.58;;;;;;;;;;6186817;28;20050;-65
2021/12/24 02:29:04;;;;;;;34.83;20.60;;;;;;;;;;6192932;28;20050;-66
2021/12/24 02:32:07;;;;;;;34.88;20.80;;;;;;;;;;6161534;28;20061;-65
2021/12/24 02:35:09;;;;;;;34.88;20.38;;;;;;;;;;6183711;28;20189;-65
2021/12/24 02:38:12;;;;;;;34.92;19.98;;;;;;;;;;6187156;28;20129;-65
2021/12/24 02:41:14;;;;;;;36.95;20.27;;;;;;;;;;6183182;28;20133;-65
2021/12/24 02:44:16;;;;;;;35.33;20.67;;;;;;;;;;6191504;28;20486;-65
2021/12/24 02:47:39;;;;;;;35.42;20.67;;;;;;;;;;6172940;28;20057;-65
2021/12/24 02:54:15;;;;;;;41.75;21.92;;;;;;;;;;6187762;28;20077;-65
2021/12/24 02:57:20;;;;;;;39.07;21.80;;;;;;;;;;6202870;28;20061;-65
2021/12/24 03:00:26;;;;;;;35.33;20.17;;;;;;;;;;6196531;28;20093;-65
2021/12/24 03:03:27;;;;;;;33.42;19.98;;;;;;;;;;6202625;28;20058;-65
2021/12/24 03:06:32;;;;;;;35.85;20.88;;;;;;;;;;6204903;28;20566;-65
2021/12/24 03:09:35;;;;;;;34.22;20.90;;;;;;;;;;6221683;28;20164;-65
2021/12/24 03:12:37;;;;;;;33.05;20.42;;;;;;;;;;6212884;28;20038;-65
2021/12/24 03:15:39;;;;;;;32.15;20.20;;;;;;;;;;6209650;28;20135;-65
2021/12/24 03:18:42;;;;;;;32.85;19.52;;;;;;;;;;6216849;28;20050;-65
2021/12/24 03:21:51;;;;;;;30.23;18.35;;;;;;;;;;6201381;28;20046;-65
2021/12/24 03:24:54;;;;;;;30.58;18.70;;;;;;;;;;6198991;28;20057;-65
2021/12/24 03:27:56;;;;;;;33.35;18.38;;;;;;;;;;6212387;28;20485;-65
2021/12/24 03:30:59;;;;;;;30.27;18.50;;;;;;;;;;6203948;28;20173;-65
2021/12/24 03:34:00;;;;;;;29.88;18.10;;;;;;;;;;6218475;28;20053;-65
2021/12/24 03:37:04;;;;;;;29.70;18.95;;;;;;;;;;6201037;28;20814;-65
2021/12/24 03:40:08;;;;;;;33.40;17.35;;;;;;;;;;6212166;28;20188;-65
2021/12/24 03:43:09;;;;;;;27.10;16.63;;;;;;;;;;6206359;28;20058;-65
2021/12/24 03:46:14;;;;;;;28.23;18.17;;;;;;;;;;6181102;28;20086;-65
2021/12/24 03:49:21;;;;;;;28.38;16.77;;;;;;;;;;6189030;28;20065;-65
2021/12/24 03:52:38;;;;;;;28.88;17.85;;;;;;;;;;6203836;28;20042;-65
2021/12/24 03:55:40;;;;;;;27.80;17.75;;;;;;;;;;6211282;28;20074;-65
2021/12/24 03:58:42;;;;;;;31.33;18.45;;;;;;;;;;6226975;28;20053;-65
2021/12/24 04:01:44;;;;;;;28.90;17.55;;;;;;;;;;6203610;28;20127;-65
2021/12/24 04:04:46;;;;;;;29.75;17.33;;;;;;;;;;6222024;28;20493;-65
2021/12/24 04:07:47;;;;;;;27.42;15.93;;;;;;;;;;6215398;28;20123;-66
2021/12/24 04:10:50;;;;;;;26.48;16.25;;;;;;;;;;6207132;28;20438;-65
2021/12/24 04:13:52;;;;;;;25.55;15.98;;;;;;;;;;6213485;28;20086;-65
2021/12/24 04:16:53;;;;;;;21.92;15.20;;;;;;;;;;6189441;28;20177;-65
2021/12/24 04:26:38;;;;;;;23.33;15.38;;;;;;;;;;6205283;28;20053;-65
2021/12/24 04:29:40;;;;;;;25.73;15.20;;;;;;;;;;6217189;28;20096;-65
2021/12/24 04:32:55;;;;;;;25.40;15.85;;;;;;;;;;6200501;28;20076;-65
2021/12/24 04:36:00;;;;;;;27.20;15.30;;;;;;;;;;6209229;28;20054;-65
2021/12/24 04:39:29;;;;;;;26.60;15.98;;;;;;;;;;6215533;28;20053;-66
2021/12/24 04:52:52;;;;;;;25.58;16.15;;;;;;;;;;6206552;28;20527;-65
2021/12/24 05:02:47;;;;;;;22.05;14.00;;;;;;;;;;6199251;28;20038;-65
2021/12/24 05:05:52;;;;;;;20.10;12.32;;;;;;;;;;6202664;28;20065;-65
2021/12/24 05:08:56;;;;;;;23.13;12.98;;;;;;;;;;6222971;28;20137;-65
2021/12/24 05:11:58;;;;;;;22.55;12.88;;;;;;;;;;6210113;28;20418;-65
2021/12/24 05:15:01;;;;;;;20.25;12.20;;;;;;;;;;6218962;28;20065;-65
2021/12/24 05:18:12;;;;;;;22.70;13.15;;;;;;;;;;6198852;28;20045;-65
2021/12/24 05:24:33;;;;;;;20.38;12.38;;;;;;;;;;6215473;28;20085;-65
2021/12/24 05:27:36;;;;;;;24.60;13.10;;;;;;;;;;6206936;28;20924;-65
2021/12/24 05:30:39;;;;;;;22.90;12.55;;;;;;;;;;6197301;28;20081;-65
2021/12/24 05:33:40;;;;;;;19.73;11.50;;;;;;;;;;6179737;28;20106;-65
2021/12/24 05:36:42;;;;;;;20.08;12.73;;;;;;;;;;6177189;28;20144;-65
2021/12/24 05:39:44;;;;;;;18.60;12.95;;;;;;;;;;6178757;28;20629;-65
2021/12/24 05:42:46;;;;;;;24.70;12.00;;;;;;;;;;6182013;28;20049;-65
2021/12/24 05:45:49;;;;;;;20.75;12.10;;;;;;;;;;6179224;28;20137;-65
2021/12/24 05:48:51;;;;;;;19.80;12.37;;;;;;;;;;6184672;28;20057;-65
2021/12/24 05:51:53;;;;;;;25.67;12.45;;;;;;;;;;6178125;28;20514;-65
2021/12/24 05:54:54;;;;;;;19.67;12.60;;;;;;;;;;6188290;28;20095;-65
2021/12/24 05:57:56;;;;;;;21.27;11.95;;;;;;;;;;6182895;28;20129;-65
2021/12/24 06:00:59;;;;;;;20.60;11.75;;;;;;;;;;6195240;28;20193;-65
2021/12/24 06:04:01;;;;;;;18.33;11.23;;;;;;;;;;6213216;28;20198;-65
2021/12/24 06:07:03;;;;;;;25.73;12.60;;;;;;;;;;6207526;28;20096;-65
2021/12/24 06:10:05;;;;;;;21.70;11.27;;;;;;;;;;6219941;28;20175;-65
2021/12/24 06:13:07;;;;;;;15.43;10.38;;;;;;;;;;6211174;28;20133;-65
2021/12/24 06:16:10;;;;;;;17.98;10.93;;;;;;;;;;6206535;28;20402;-66
2021/12/24 06:19:12;;;;;;;18.05;11.30;;;;;;;;;;6210981;28;20053;-65
2021/12/24 06:22:13;;;;;;;18.25;11.35;;;;;;;;;;6203971;28;20137;-65
2021/12/24 06:25:15;;;;;;;20.02;11.55;;;;;;;;;;6190908;28;20169;-65
2021/12/24 06:28:17;;;;;;;20.40;10.88;;;;;;;;;;6183129;28;20061;-65
2021/12/24 06:31:20;;;;;;;18.50;11.00;;;;;;;;;;6196069;28;20109;-65
2021/12/24 06:34:21;;;;;;;17.27;10.85;;;;;;;;;;6219467;28;20523;-65
2021/12/24 06:37:23;;;;;;;20.58;11.43;;;;;;;;;;6209307;28;20452;-66
2021/12/24 06:40:25;;;;;;;19.80;10.60;;;;;;;;;;6200932;28;21186;-65
2021/12/24 06:43:28;;;;;;;15.93;10.18;;;;;;;;;;6205313;28;20156;-64
2021/12/24 06:46:31;;;;;;;14.00;8.85;;;;;;;;;;6205545;28;20643;-65
2021/12/24 06:49:33;;;;;;;13.93;9.43;;;;;;;;;;6220300;28;20128;-65
2021/12/24 06:52:35;;;;;;;15.25;9.45;;;;;;;;;;6202679;28;20073;-65
2021/12/24 06:55:37;;;;;;;17.15;9.02;;;;;;;;;;6191260;28;20076;-65
2021/12/24 06:58:38;;;;;;;14.95;9.43;;;;;;;;;;6190885;28;20049;-66
2021/12/24 07:01:42;;;;;;;15.00;9.32;;;;;;;;;;6203482;28;20177;-66
2021/12/24 07:04:43;;;;;;;12.95;8.77;;;;;;;;;;6214182;28;20487;-65
2021/12/24 07:07:45;;;;;;;13.25;8.80;;;;;;;;;;6192068;28;20065;-66
2021/12/24 07:10:47;;;;;;;12.73;8.45;;;;;;;;;;6174242;28;20149;-66
2021/12/24 07:13:48;;;;;;;13.60;8.43;;;;;;;;;;6184690;28;20128;-66
2021/12/24 07:16:52;;;;;;;12.65;8.25;;;;;;;;;;6172114;28;20137;-66
2021/12/24 07:19:53;;;;;;;14.18;8.48;;;;;;;;;;6180930;28;20050;-66
2021/12/24 07:22:55;;;;;;;12.50;8.43;;;;;;;;;;6173109;28;20137;-66
2021/12/24 07:25:57;;;;;;;13.63;8.98;;;;;;;;;;6173391;28;20180;-65
2021/12/24 07:28:58;;;;;;;14.05;8.25;;;;;;;;;;6185137;28;20096;-66
2021/12/24 07:32:01;;;;;;;14.38;8.13;;;;;;;;;;6170461;28;20230;-65
2021/12/24 07:35:04;;;;;;;14.68;7.68;;;;;;;;;;6178540;28;20042;-66
2021/12/24 07:38:06;;;;;;;13.73;8.25;;;;;;;;;;6179754;28;20284;-66
2021/12/24 07:41:08;;;;;;;13.68;7.50;;;;;;;;;;6176611;28;20088;-65
2021/12/24 07:44:09;;;;;;;11.40;7.75;;;;;;;;;;6185529;28;20130;-65
2021/12/24 07:47:18;;;;;;;13.07;8.38;;;;;;;;;;6171592;28;20063;-65
2021/12/24 07:51:57;;;;;;;20.30;11.25;;;;;;;;;;6183700;28;20074;-65
2021/12/24 07:53:43;;;;;;;16.58;9.38;;;;;;;;;;6182135;28;20058;-65
2021/12/24 07:56:44;;;;;;;15.95;9.35;;;;;;;;;;6176143;28;20096;-65
2021/12/24 07:59:46;;;;;;;14.55;8.27;;;;;;;;;;6183307;28;20163;-65
2021/12/24 08:02:49;;;;;;;17.73;8.90;;;;;;;;;;6166540;28;20144;-65
2021/12/24 08:05:51;;;;;;;14.02;8.38;;;;;;;;;;6165883;28;20077;-65
2021/12/24 08:08:53;;;;;;;17.17;8.65;;;;;;;;;;6200735;28;20152;-65
2021/12/24 08:11:54;;;;;;;22.83;9.60;;;;;;;;;;6209036;28;20132;-65
2021/12/24 08:14:56;;;;;;;17.95;10.02;;;;;;;;;;6224524;28;20631;-66
2021/12/24 08:17:59;;;;;;;21.30;9.18;;;;;;;;;;6202023;28;20128;-66
2021/12/24 08:21:00;;;;;;;16.55;10.00;;;;;;;;;;6210781;28;21090;-66
2021/12/24 08:24:03;;;;;;;17.42;10.77;;;;;;;;;;6188835;28;20050;-66
2021/12/24 08:27:06;;;;;;;21.05;10.98;;;;;;;;;;6189735;28;21364;-66
2021/12/24 08:30:09;;;;;;;21.10;10.90;;;;;;;;;;6192667;28;20058;-66
2021/12/24 08:33:15;;;;;;;20.42;10.00;;;;;;;;;;6186740;28;20128;-66
2021/12/24 08:36:17;;;;;;;17.88;10.30;;;;;;;;;;6188693;28;20061;-66
2021/12/24 08:39:19;;;;;;;16.10;10.13;;;;;;;;;;6200526;28;20047;-65
2021/12/24 08:42:22;;;;;;;19.70;12.57;;;;;;;;;;6187396;28;20058;-66
2021/12/24 08:45:23;;;;;;;26.40;13.70;;;;;;;;;;6190370;28;20066;-66
2021/12/24 08:48:26;;;;;;;28.45;15.57;;;;;;;;;;6193968;28;20054;-66
2021/12/24 08:51:28;;;;;;;31.25;18.20;;;;;;;;;;6181811;28;20134;-66
2021/12/24 08:54:30;;;;;;;43.38;23.40;;;;;;;;;;6222301;28;20049;-66
2021/12/24 08:57:31;;;;;;;46.92;24.80;;;;;;;;;;6190386;28;20129;-66
2021/12/24 09:00:35;;;;;;;47.58;25.55;;;;;;;;;;6208883;28;20623;-66
2021/12/24 09:03:38;;;;;;;48.85;26.45;;;;;;;;;;6215353;28;20461;-66
2021/12/24 09:06:40;;;;;;;43.37;26.23;;;;;;;;;;6209585;28;20482;-66
2021/12/24 09:09:42;;;;;;;48.20;27.30;;;;;;;;;;6219784;28;20100;-66
2021/12/24 09:12:43;;;;;;;45.95;27.20;;;;;;;;;;6211207;28;20172;-66
2021/12/24 09:15:45;;;;;;;45.40;27.27;;;;;;;;;;6204217;28;20461;-66
2021/12/24 09:18:56;;;;;;;47.17;26.92;;;;;;;;;;6223351;28;20193;-66
2021/12/24 09:21:58;;;;;;;53.55;27.42;;;;;;;;;;6207878;28;20099;-66
2021/12/24 09:24:59;;;;;;;47.13;27.42;;;;;;;;;;6221135;28;20058;-66
2021/12/24 09:28:02;;;;;;;49.38;28.15;;;;;;;;;;6209288;28;20384;-66
2021/12/24 09:31:03;;;;;;;47.58;26.55;;;;;;;;;;6206495;28;20084;-66
2021/12/24 09:34:07;;;;;;;46.67;27.52;;;;;;;;;;6217596;28;20100;-65
2021/12/24 09:37:08;;;;;;;50.30;27.20;;;;;;;;;;6209866;28;20136;-66
2021/12/24 09:40:13;;;;;;;48.63;25.73;;;;;;;;;;6211858;28;20133;-66
2021/12/24 09:43:14;;;;;;;49.47;26.13;;;;;;;;;;6217927;28;20128;-66
2021/12/24 09:46:16;;;;;;;45.22;25.83;;;;;;;;;;6206377;28;20129;-66
2021/12/24 09:49:20;;;;;;;46.47;26.25;;;;;;;;;;6216084;28;20132;-66
2021/12/24 09:52:23;;;;;;;45.95;26.02;;;;;;;;;;6207499;28;20085;-66
2021/12/24 09:55:26;;;;;;;42.63;24.67;;;;;;;;;;6210062;28;20180;-67
2021/12/24 09:58:28;;;;;;;46.20;25.43;;;;;;;;;;6213216;28;20053;-66
2021/12/24 10:01:31;;;;;;;41.95;24.25;;;;;;;;;;6200538;28;20076;-67
2021/12/24 10:04:37;;;;;;;43.45;24.38;;;;;;;;;;6212079;28;20049;-66
2021/12/24 10:07:39;;;;;;;41.63;24.20;;;;;;;;;;6206055;28;20102;-66
2021/12/24 10:10:43;;;;;;;44.15;24.38;;;;;;;;;;6209063;28;20053;-65
2021/12/24 10:13:46;;;;;;;42.90;24.13;;;;;;;;;;6216587;28;20077;-65
2021/12/24 10:16:50;;;;;;;48.80;24.25;;;;;;;;;;6197909;28;20517;-65
2021/12/24 10:19:55;;;;;;;41.28;23.52;;;;;;;;;;6209187;28;20129;-66
2021/12/24 10:22:57;;;;;;;40.22;22.98;;;;;;;;;;6207714;28;20050;-66
2021/12/24 10:26:11;;;;;;;43.00;24.05;;;;;;;;;;6202550;28;20512;-65
2021/12/24 10:29:16;;;;;;;42.50;24.55;;;;;;;;;;6219180;28;20410;-66
2021/12/24 10:32:19;;;;;;;39.78;23.15;;;;;;;;;;6202154;28;20149;-66
2021/12/24 10:35:25;;;;;;;43.50;24.25;;;;;;;;;;6208011;28;20098;-66
2021/12/24 10:38:26;;;;;;;43.15;23.40;;;;;;;;;;6220942;28;20125;-66
2021/12/24 10:41:29;;;;;;;47.53;25.23;;;;;;;;;;6216207;28;20414;-66
2021/12/24 10:44:33;;;;;;;45.33;24.75;;;;;;;;;;6204368;28;20410;-66
2021/12/24 10:47:37;;;;;;;39.67;23.63;;;;;;;;;;6165399;28;20103;-66
2021/12/24 10:50:49;;;;;;;44.78;25.45;;;;;;;;;;6189176;28;20050;-65
2021/12/24 10:54:02;;;;;;;44.83;25.48;;;;;;;;;;6221318;28;20726;-65
2021/12/24 10:57:17;;;;;;;42.15;24.13;;;;;;;;;;6182193;28;20474;-66
2021/12/24 11:00:27;;;;;;;40.88;24.85;;;;;;;;;;6193493;28;20140;-66
2021/12/24 11:03:32;;;;;;;42.05;24.23;;;;;;;;;;6209321;28;20081;-66
2021/12/24 11:06:35;;;;;;;48.05;26.60;;;;;;;;;;6209061;28;20053;-65
2021/12/24 11:09:36;;;;;;;43.70;24.92;;;;;;;;;;6215010;28;20065;-66
2021/12/24 11:12:40;;;;;;;39.85;23.67;;;;;;;;;;6207695;28;20039;-66
2021/12/24 11:15:44;;;;;;;44.67;24.67;;;;;;;;;;6208937;28;20792;-66
2021/12/24 11:18:54;;;;;;;43.00;25.63;;;;;;;;;;6206821;28;20050;-65
2021/12/24 11:22:05;;;;;;;48.30;25.40;;;;;;;;;;6187002;28;20106;-65
2021/12/24 11:25:07;;;;;;;43.30;23.52;;;;;;;;;;6182969;28;20078;-66
2021/12/24 11:28:10;;;;;;;43.22;25.50;;;;;;;;;;6180296;28;20050;-65
2021/12/24 11:31:13;;;;;;;42.38;24.73;;;;;;;;;;6177867;28;20086;-66
2021/12/24 11:34:15;;;;;;;39.33;23.77;;;;;;;;;;6180971;28;20523;-66
2021/12/24 11:37:20;;;;;;;43.90;25.13;;;;;;;;;;6171490;28;20189;-66
2021/12/24 11:40:24;;;;;;;43.10;24.65;;;;;;;;;;6190105;28;20050;-66
2021/12/24 11:43:28;;;;;;;44.03;24.02;;;;;;;;;;6215416;28;20135;-66
2021/12/24 11:46:29;;;;;;;66.90;35.83;;;;;;;;;;6186139;28;20041;-66
2021/12/24 11:49:31;;;;;;;63.85;34.08;;;;;;;;;;6209431;28;20176;-66
2021/12/24 11:52:34;;;;;;;51.78;30.33;;;;;;;;;;6199758;28;20058;-65
2021/12/24 11:55:42;;;;;;;43.97;24.92;;;;;;;;;;6188260;28;20186;-65
2021/12/24 11:58:45;;;;;;;46.92;25.90;;;;;;;;;;6214759;28;20048;-66
2021/12/24 12:01:47;;;;;;;41.72;25.77;;;;;;;;;;6185470;28;20498;-66
2021/12/24 12:05:10;;;;;;;45.03;24.98;;;;;;;;;;6209971;28;20139;-66
2021/12/24 12:08:40;;;;;;;48.55;25.75;;;;;;;;;;6184565;28;20074;-66
2021/12/24 12:11:42;;;;;;;41.03;24.05;;;;;;;;;;6183416;28;20051;-66
2021/12/24 12:14:44;;;;;;;45.28;25.35;;;;;;;;;;6211795;28;20532;-66
2021/12/24 12:17:50;;;;;;;42.85;24.45;;;;;;;;;;6203369;28;20181;-66
2021/12/24 12:20:57;;;;;;;41.15;23.50;;;;;;;;;;6194169;28;20145;-66
2021/12/24 12:27:36;;;;;;;43.95;24.55;;;;;;;;;;6209482;28;20065;-65
2021/12/24 12:30:42;;;;;;;40.15;24.30;;;;;;;;;;6189857;28;20050;-66
2021/12/24 12:33:45;;;;;;;42.05;25.30;;;;;;;;;;6201114;28;20453;-66
2021/12/24 12:36:46;;;;;;;46.78;25.50;;;;;;;;;;6195431;28;20054;-66
2021/12/24 12:39:51;;;;;;;42.35;24.92;;;;;;;;;;6207091;28;20092;-66
2021/12/24 12:43:09;;;;;;;45.25;23.85;;;;;;;;;;6187828;28;20054;-65
2021/12/24 12:46:19;;;;;;;37.10;22.20;;;;;;;;;;6179151;28;20121;-66
2021/12/24 12:49:21;;;;;;;36.00;22.42;;;;;;;;;;6207867;28;20076;-66
2021/12/24 12:52:28;;;;;;;40.67;21.17;;;;;;;;;;6172227;28;20158;-66
2021/12/24 12:55:33;;;;;;;40.20;23.17;;;;;;;;;;6172166;28;20050;-66
2021/12/24 12:58:35;;;;;;;39.63;23.42;;;;;;;;;;6191651;28;20148;-66
2021/12/24 13:01:50;;;;;;;35.83;22.80;;;;;;;;;;6191368;28;20744;-66
2021/12/24 13:05:13;;;;;;;41.65;23.00;;;;;;;;;;6217370;28;20132;-66
2021/12/24 13:08:16;;;;;;;36.08;22.17;;;;;;;;;;6193958;28;20047;-65
2021/12/24 13:11:21;;;;;;;35.47;22.52;;;;;;;;;;6186309;28;20141;-64
2021/12/24 13:14:25;;;;;;;63.75;31.27;;;;;;;;;;6200258;28;20069;-66
2021/12/24 13:17:33;;;;;;;45.67;25.88;;;;;;;;;;6184362;28;20123;-66
2021/12/24 13:20:55;;;;;;;35.88;23.13;;;;;;;;;;6202785;28;20692;-66
2021/12/24 13:23:55;;;;;;;50.88;27.20;;;;;;;;;;6206986;28;20046;-65
2021/12/24 13:26:58;;;;;;;49.83;29.25;;;;;;;;;;6184816;28;20129;-66
2021/12/24 13:30:15;;;;;;;53.33;30.23;;;;;;;;;;6205564;28;20514;-66
2021/12/24 13:33:19;;;;;;;47.28;28.70;;;;;;;;;;6190161;28;20061;-66
2021/12/24 13:36:22;;;;;;;54.42;30.83;;;;;;;;;;6181612;28;20129;-65
2021/12/24 13:39:24;;;;;;;51.40;28.25;;;;;;;;;;6210620;28;20214;-66
2021/12/24 13:42:27;;;;;;;52.88;29.02;;;;;;;;;;6208963;28;20065;-65
2021/12/24 13:45:33;;;;;;;52.30;30.98;;;;;;;;;;6205527;28;20411;-66
2021/12/24 13:48:47;;;;;;;56.40;31.20;;;;;;;;;;6188347;28;20493;-66
2021/12/24 13:55:19;;;;;;;52.90;30.65;;;;;;;;;;6184000;28;20050;-67
2021/12/24 13:58:23;;;;;;;50.72;31.15;;;;;;;;;;6205766;28;20074;-66
2021/12/24 14:01:25;;;;;;;54.88;31.83;;;;;;;;;;6196976;28;20069;-66
2021/12/24 14:04:27;;;;;;;56.42;31.88;;;;;;;;;;6202191;28;20042;-66
2021/12/24 14:07:28;;;;;;;56.67;31.88;;;;;;;;;;6179841;28;20042;-66
2021/12/24 14:10:30;;;;;;;52.78;30.42;;;;;;;;;;6178010;28;20189;-66
2021/12/24 14:13:37;;;;;;;56.33;32.20;;;;;;;;;;6178216;28;20133;-66
2021/12/24 14:16:53;;;;;;;57.50;32.05;;;;;;;;;;6188375;28;20062;-65
2021/12/24 14:20:03;;;;;;;55.90;33.20;;;;;;;;;;6190658;28;20047;-66
2021/12/24 14:23:16;;;;;;;54.15;31.73;;;;;;;;;;6182812;28;20173;-65
2021/12/24 14:26:17;;;;;;;56.83;31.48;;;;;;;;;;6180170;28;20185;-65
2021/12/24 14:29:30;;;;;;;57.75;32.33;;;;;;;;;;6192109;28;20070;-65
2021/12/24 14:32:34;;;;;;;55.72;32.03;;;;;;;;;;6181447;28;20137;-65
2021/12/24 14:35:44;;;;;;;53.42;31.25;;;;;;;;;;6183227;28;20128;-66
2021/12/24 14:38:45;;;;;;;62.45;32.08;;;;;;;;;;6190656;28;20046;-65
2021/12/24 14:41:47;;;;;;;57.22;31.92;;;;;;;;;;6203413;28;20181;-65
2021/12/24 14:44:54;;;;;;;58.55;32.35;;;;;;;;;;6218026;28;20049;-65
2021/12/24 14:47:59;;;;;;;58.53;31.60;;;;;;;;;;6180833;28;20141;-65
2021/12/24 14:51:04;;;;;;;55.03;31.05;;;;;;;;;;6178396;28;20494;-65
2021/12/24 14:54:06;;;;;;;59.33;34.17;;;;;;;;;;6200355;28;20041;-65
2021/12/24 14:57:08;;;;;;;60.38;34.05;;;;;;;;;;6202752;28;20049;-65
2021/12/24 15:00:13;;;;;;;58.97;32.25;;;;;;;;;;6207091;28;20124;-65
2021/12/24 15:03:17;;;;;;;60.83;32.97;;;;;;;;;;6177760;28;20129;-65
2021/12/24 15:06:20;;;;;;;57.33;32.17;;;;;;;;;;6181092;28;20050;-65
2021/12/24 15:09:28;;;;;;;59.20;33.10;;;;;;;;;;6200110;28;20078;-65
2021/12/24 15:12:32;;;;;;;59.42;32.75;;;;;;;;;;6209272;28;20464;-65
2021/12/24 15:15:35;;;;;;;66.95;34.15;;;;;;;;;;6204712;28;20038;-65
2021/12/24 15:18:37;;;;;;;59.13;32.55;;;;;;;;;;6208163;28;20124;-65
2021/12/24 15:21:39;;;;;;;61.83;32.80;;;;;;;;;;6198619;28;20054;-65
2021/12/24 15:24:41;;;;;;;60.88;33.20;;;;;;;;;;6202327;28;20072;-66
2021/12/24 15:27:43;;;;;;;58.47;31.10;;;;;;;;;;6199095;28;20069;-66
2021/12/24 15:30:46;;;;;;;62.22;33.45;;;;;;;;;;6179345;28;20122;-65
2021/12/24 15:33:48;;;;;;;;;;;;;;;;;;6198069;28;20053;-65
2021/12/24 15:36:50;;;;;;;53.78;31.83;;;;;;;;;;6208398;28;20343;-65
2021/12/24 15:39:51;;;;;;;55.70;33.17;;;;;;;;;;6213110;28;20164;-65
2021/12/24 15:42:54;;;;;;;60.50;32.60;;;;;;;;;;6199194;28;20133;-65
2021/12/24 15:45:58;;;;;;;59.13;34.22;;;;;;;;;;6189795;28;20397;-65
2021/12/24 15:48:59;;;;;;;58.83;33.88;;;;;;;;;;6202862;28;20061;-65
2021/12/24 15:52:01;;;;;;;58.53;32.55;;;;;;;;;;6174669;28;20684;-65
2021/12/24 15:55:03;;;;;;;60.67;33.88;;;;;;;;;;6183724;28;20068;-65
2021/12/24 15:58:06;;;;;;;60.42;35.28;;;;;;;;;;6195387;28;20057;-65
2021/12/24 16:01:10;;;;;;;44.20;26.17;;;;;;;;;;6179715;28;20058;-66
2021/12/24 16:04:11;;;;;;;62.22;34.40;;;;;;;;;;6189117;28;20054;-65
2021/12/24 16:07:13;;;;;;;60.42;35.03;;;;;;;;;;6185011;28;20125;-65
2021/12/24 16:10:15;;;;;;;67.00;36.75;;;;;;;;;;6199495;28;20046;-66
2021/12/24 16:13:19;;;;;;;57.90;33.38;;;;;;;;;;6197962;28;20058;-64
2021/12/24 16:16:25;;;;;;;68.22;36.17;;;;;;;;;;6184655;28;20050;-65
2021/12/24 16:19:26;;;;;;;64.43;33.35;;;;;;;;;;6223565;28;20053;-65
2021/12/24 16:22:28;;;;;;;69.93;35.95;;;;;;;;;;6194986;28;20050;-65
2021/12/24 16:25:30;;;;;;;67.35;37.13;;;;;;;;;;6191054;28;20579;-66
2021/12/24 16:28:31;;;;;;;67.15;35.90;;;;;;;;;;6206016;28;20458;-65
2021/12/24 16:31:34;;;;;;;61.67;34.92;;;;;;;;;;6188955;28;20137;-65
2021/12/24 16:34:36;;;;;;;67.70;37.03;;;;;;;;;;6180821;28;20140;-65
2021/12/24 16:37:38;;;;;;;64.80;36.22;;;;;;;;;;6172693;28;20124;-65
2021/12/24 16:40:40;;;;;;;67.78;36.88;;;;;;;;;;6188780;28;20137;-65
2021/12/24 16:43:41;;;;;;;61.67;35.10;;;;;;;;;;6196688;28;20466;-65
2021/12/24 16:46:44;;;;;;;59.47;33.40;;;;;;;;;;6187736;28;20139;-65
2021/12/24 16:49:46;;;;;;;65.35;35.88;;;;;;;;;;6213184;28;20123;-65
2021/12/24 16:52:48;;;;;;;63.45;34.67;;;;;;;;;;6206916;28;20046;-65
2021/12/24 16:55:51;;;;;;;61.60;35.97;;;;;;;;;;6212491;28;20866;-65
2021/12/24 16:58:53;;;;;;;62.47;35.80;;;;;;;;;;6222500;28;20111;-65
2021/12/24 17:01:56;;;;;;;63.15;36.58;;;;;;;;;;6203500;28;20085;-65
2021/12/24 17:04:57;;;;;;;66.32;37.10;;;;;;;;;;6188516;28;20522;-66
2021/12/24 17:07:59;;;;;;;64.88;35.63;;;;;;;;;;6175058;28;20107;-65
2021/12/24 17:11:01;;;;;;;65.93;36.20;;;;;;;;;;6201128;28;20041;-65
2021/12/24 17:14:03;;;;;;;65.75;37.10;;;;;;;;;;6213133;28;20180;-65
2021/12/24 17:17:07;;;;;;;65.07;36.33;;;;;;;;;;6193358;28;20056;-64
2021/12/24 17:20:11;;;;;;;63.17;35.33;;;;;;;;;;6195178;28;20107;-66
2021/12/24 17:23:13;;;;;;;66.88;35.08;;;;;;;;;;6180438;28;20096;-64
2021/12/24 17:26:14;;;;;;;65.18;36.90;;;;;;;;;;6202753;28;20085;-64
2021/12/24 17:29:17;;;;;;;68.03;36.00;;;;;;;;;;6215392;28;20112;-64
2021/12/24 17:32:20;;;;;;;61.58;35.35;;;;;;;;;;6192014;28;20099;-64
2021/12/24 17:35:22;;;;;;;62.03;35.13;;;;;;;;;;6204265;28;20046;-64
2021/12/24 17:38:23;;;;;;;65.18;35.65;;;;;;;;;;6212850;28;20061;-64
2021/12/24 17:41:25;;;;;;;67.25;37.75;;;;;;;;;;6201873;28;20133;-64
2021/12/24 17:44:27;;;;;;;62.65;36.05;;;;;;;;;;6210423;28;20069;-64
2021/12/24 17:47:30;;;;;;;61.25;35.67;;;;;;;;;;6188754;28;20219;-63
2021/12/24 17:50:31;;;;;;;67.50;37.08;;;;;;;;;;6196378;28;20138;-64
2021/12/24 17:53:33;;;;;;;61.88;35.67;;;;;;;;;;6209222;28;20122;-65
2021/12/24 17:56:35;;;;;;;64.32;36.05;;;;;;;;;;6202004;28;20104;-64
2021/12/24 17:59:36;;;;;;;69.80;36.10;;;;;;;;;;6210576;28;20153;-64
2021/12/24 18:02:39;;;;;;;63.08;35.47;;;;;;;;;;6189221;28;20096;-64
2021/12/24 18:05:41;;;;;;;63.53;35.58;;;;;;;;;;6199678;28;20192;-64
2021/12/24 18:08:43;;;;;;;67.68;37.88;;;;;;;;;;6210681;28;20134;-64
2021/12/24 18:11:45;;;;;;;64.88;36.33;;;;;;;;;;6197311;28;20097;-65
2021/12/24 18:14:47;;;;;;;63.00;36.13;;;;;;;;;;6212092;28;20057;-64
2021/12/24 18:17:50;;;;;;;68.60;36.72;;;;;;;;;;6190657;28;20295;-65
2021/12/24 18:20:51;;;;;;;64.10;35.90;;;;;;;;;;6203335;28;20453;-65
2021/12/24 18:23:54;;;;;;;67.10;35.67;;;;;;;;;;6221729;28;20058;-64
2021/12/24 18:26:56;;;;;;;62.60;34.67;;;;;;;;;;6204287;28;20050;-65
2021/12/24 18:29:58;;;;;;;66.47;36.92;;;;;;;;;;6222592;28;20129;-66
2021/12/24 18:33:01;;;;;;;66.43;37.50;;;;;;;;;;6199640;28;20066;-65
2021/12/24 18:36:03;;;;;;;47.60;27.90;;;;;;;;;;6208611;28;20045;-65
2021/12/24 18:39:05;;;;;;;60.88;35.63;;;;;;;;;;6218547;28;20106;-65
2021/12/24 18:42:07;;;;;;;62.25;35.33;;;;;;;;;;6204468;28;20074;-63
2021/12/24 18:45:10;;;;;;;62.08;35.17;;;;;;;;;;6182842;28;20066;-65
2021/12/24 18:48:14;;;;;;;61.60;33.22;;;;;;;;;;6178825;28;20042;-64
2021/12/24 18:51:16;;;;;;;69.43;36.17;;;;;;;;;;6183127;28;20419;-64
2021/12/24 18:54:17;;;;;;;60.80;34.70;;;;;;;;;;6199137;28;20146;-66
2021/12/24 18:57:19;;;;;;;63.08;34.53;;;;;;;;;;6206119;28;20077;-65
2021/12/24 19:00:23;;;;;;;59.63;33.65;;;;;;;;;;6203415;28;20119;-65
2021/12/24 19:03:26;;;;;;;57.83;34.30;;;;;;;;;;6208647;28;20046;-64
2021/12/24 19:06:28;;;;;;;66.53;35.63;;;;;;;;;;6196320;28;20440;-64